createdAt,value
2019-02-14T00:00:06.206Z,102231.83
2019-02-14T00:02:36.693Z,102234.65
2019-02-14T00:05:07.117Z,102235.14
2019-02-14T00:07:37.470Z,102238.52
2019-02-14T00:10:08.966Z,102235.50
2019-02-14T00:12:39.341Z,102237.45
2019-02-14T00:15:11.905Z,102235.91
2019-02-14T00:17:42.820Z,102241.30
2019-02-14T00:20:13.222Z,102240.17
2019-02-14T00:22:44.123Z,102239.02
2019-02-14T00:25:14.624Z,102238.66
2019-02-14T00:27:44.988Z,102234.84
2019-02-14T00:30:15.366Z,102238.08
2019-02-14T00:32:45.924Z,102238.21
2019-02-14T00:35:24.554Z,102242.20
2019-02-14T00:37:49.901Z,102245.00
2019-02-14T00:40:20.286Z,102248.59
2019-02-14T00:42:51.240Z,102245.14
2019-02-14T00:45:21.571Z,102247.85
2019-02-14T00:47:52.182Z,102251.39
2019-02-14T00:50:22.631Z,102257.68
2019-02-14T00:52:52.990Z,102256.77
2019-02-14T00:55:23.805Z,102256.94
2019-02-14T00:57:54.112Z,102250.87
2019-02-14T01:00:24.476Z,102249.17
2019-02-14T01:02:57.241Z,102236.94
2019-02-14T01:05:33.422Z,102237.81
2019-02-14T01:08:00.014Z,102245.80
2019-02-14T01:10:31.465Z,102249.81
2019-02-14T01:13:01.920Z,102245.36
2019-02-14T01:15:36.253Z,102252.74
2019-02-14T01:18:07.409Z,102249.17
2019-02-14T01:20:37.901Z,102244.53
2019-02-14T01:23:08.398Z,102241.75
2019-02-14T01:25:40.850Z,102248.73
2019-02-14T01:28:12.320Z,102250.00
2019-02-14T01:30:43.969Z,102248.69
2019-02-14T01:33:14.331Z,102261.41
2019-02-14T01:35:44.638Z,102264.94
2019-02-14T01:38:15.015Z,102269.83
2019-02-14T01:40:45.403Z,102269.83
2019-02-14T01:43:15.899Z,102263.80
2019-02-14T01:45:46.187Z,102264.32
2019-02-14T01:48:17.029Z,102267.94
2019-02-14T01:50:47.371Z,102269.77
2019-02-14T01:53:17.770Z,102271.52
2019-02-14T01:55:48.160Z,102276.28
2019-02-14T01:58:18.734Z,102275.84
2019-02-14T02:00:49.163Z,102284.62
2019-02-14T02:03:19.490Z,102284.78
2019-02-14T02:05:51.049Z,102286.21
2019-02-14T03:46:16.452Z,102276.81
2019-02-14T04:10:50.680Z,102293.02
2019-02-14T04:31:41.709Z,102329.14
2019-02-14T04:38:06.920Z,102324.75
2019-02-14T04:45:07.307Z,102319.98
2019-02-14T04:48:26.554Z,102321.70
2019-02-14T07:51:48.628Z,102414.98
2019-02-14T08:05:59.458Z,102412.73
2019-02-14T08:20:00.975Z,102429.74
2019-02-14T08:23:13.352Z,102426.98
2019-02-14T08:33:53.336Z,102431.25
2019-02-14T08:55:02.802Z,102399.63
2019-02-14T10:59:19.216Z,102305.38
2019-02-14T11:06:30.688Z,102304.09
2019-02-14T11:13:29.922Z,102300.09
2019-02-14T12:00:13.899Z,102270.66
2019-02-14T12:03:03.545Z,102267.23
2019-02-14T12:44:41.375Z,102230.47
2019-02-14T12:47:33.972Z,102231.31
2019-02-14T12:54:36.228Z,102224.61
2019-02-14T13:13:09.234Z,102217.05
2019-02-14T13:22:53.491Z,102202.86
2019-02-14T13:59:27.772Z,102190.83
2019-02-14T14:21:59.270Z,102202.55
2019-02-14T14:29:03.899Z,102196.23
2019-02-14T14:38:45.167Z,102199.30
2019-02-14T14:42:14.622Z,102198.84
2019-02-14T14:45:44.276Z,102202.55
2019-02-14T14:55:53.038Z,102198.44
2019-02-14T15:02:31.675Z,102196.62
2019-02-14T15:05:46.929Z,102197.52
2019-02-14T15:19:40.828Z,102190.58
2019-02-14T15:26:08.315Z,102194.19
2019-02-14T15:37:34.642Z,102191.31
2019-02-14T15:40:44.391Z,102187.44
2019-02-14T15:44:07.849Z,102190.89
2019-02-14T15:47:39.944Z,102194.80
2019-02-14T15:55:06.374Z,102200.80
2019-02-14T16:05:49.270Z,102200.23
2019-02-14T16:24:00.778Z,102199.76
2019-02-14T16:27:57.205Z,102198.13
2019-02-14T16:50:55.436Z,102181.52
2019-02-14T17:05:32.749Z,102190.63
2019-02-14T17:08:52.326Z,102194.62
2019-02-14T17:27:05.871Z,102204.19
2019-02-14T17:48:30.907Z,102213.51
2019-02-14T17:51:54.278Z,102206.05
2019-02-14T18:20:50.046Z,102212.91
2019-02-14T18:24:22.689Z,102220.17
2019-02-14T19:03:23.697Z,102237.53
2019-02-14T19:06:31.842Z,102231.83
2019-02-14T19:24:33.910Z,102237.28
2019-02-14T19:31:12.546Z,102232.39
2019-02-14T19:33:42.972Z,102240.90
2019-02-14T19:36:13.909Z,102241.05
2019-02-14T19:38:49.335Z,102237.70
2019-02-14T19:41:26.543Z,102241.38
2019-02-14T19:44:02.055Z,102239.27
2019-02-14T19:46:37.427Z,102242.02
2019-02-14T19:49:11.712Z,102243.86
2019-02-14T19:51:47.432Z,102244.80
2019-02-14T19:54:18.014Z,102237.53
2019-02-14T19:56:49.061Z,102247.18
2019-02-14T19:59:19.609Z,102237.73
2019-02-14T20:01:49.958Z,102241.84
2019-02-14T20:04:20.607Z,102238.95
2019-02-14T20:06:50.955Z,102243.43
2019-02-14T20:09:21.573Z,102243.55
2019-02-14T20:11:52.545Z,102238.41
2019-02-14T20:14:23.051Z,102241.61
2019-02-14T20:16:53.298Z,102237.81
2019-02-14T20:19:23.610Z,102232.67
2019-02-14T20:21:54.167Z,102234.94
2019-02-14T20:24:25.433Z,102231.13
2019-02-14T20:26:55.703Z,102234.58
2019-02-14T20:29:26.193Z,102232.38
2019-02-14T20:31:56.471Z,102229.27
2019-02-14T20:34:26.778Z,102233.54
2019-02-14T20:36:57.083Z,102226.61
2019-02-14T20:39:27.520Z,102226.14
2019-02-14T20:41:57.884Z,102227.88
2019-02-14T20:44:30.054Z,102222.22
2019-02-14T20:47:01.198Z,102219.58
2019-02-14T20:49:31.523Z,102217.41
2019-02-14T20:52:02.381Z,102214.36
2019-02-14T20:54:33.062Z,102209.59
2019-02-14T20:57:05.241Z,102210.03
2019-02-14T20:59:36.070Z,102210.84
2019-02-14T21:02:07.424Z,102206.03
2019-02-14T21:04:37.826Z,102204.60
2019-02-14T21:07:08.076Z,102203.30
2019-02-14T21:09:38.318Z,102207.65
2019-02-14T21:12:09.041Z,102206.44
2019-02-14T21:14:39.311Z,102204.72
2019-02-14T21:17:09.681Z,102207.45
2019-02-14T21:19:40.318Z,102201.41
2019-02-14T21:22:18.179Z,102195.79
2019-02-14T21:24:43.069Z,102197.62
2019-02-14T21:27:13.526Z,102205.94
2019-02-14T21:29:44.543Z,102201.21
2019-02-14T21:32:14.902Z,102197.88
2019-02-14T21:34:45.360Z,102201.87
2019-02-14T21:37:15.732Z,102206.81
2019-02-14T21:39:46.576Z,102203.42
2019-02-14T21:42:20.851Z,102203.46
2019-02-14T21:44:48.874Z,102200.98
2019-02-14T21:47:19.349Z,102201.01
2019-02-14T21:49:50.010Z,102202.31
2019-02-14T21:52:20.639Z,102196.27
2019-02-14T21:54:50.897Z,102195.44
2019-02-14T21:57:21.303Z,102199.91
2019-02-14T21:59:51.530Z,102198.71
2019-02-14T22:02:21.857Z,102208.72
2019-02-14T22:04:52.391Z,102205.44
2019-02-14T22:07:23.106Z,102209.83
2019-02-14T22:09:53.525Z,102206.42
2019-02-14T22:12:38.892Z,102200.30
2019-02-14T22:14:56.313Z,102201.70
2019-02-14T22:17:26.629Z,102210.42
2019-02-14T22:19:57.356Z,102204.31
2019-02-14T22:22:27.622Z,102206.53
2019-02-14T22:24:57.858Z,102197.04
2019-02-14T22:27:28.264Z,102206.64
2019-02-14T22:29:59.027Z,102202.70
2019-02-14T22:32:29.482Z,102204.89
2019-02-14T22:34:59.837Z,102201.44
2019-02-14T22:37:30.123Z,102210.98
2019-02-14T22:40:00.449Z,102210.13
2019-02-14T22:42:30.720Z,102212.34
2019-02-14T22:45:01.043Z,102216.60
2019-02-14T22:47:31.266Z,102218.86
2019-02-14T22:50:01.563Z,102222.41
2019-02-14T22:52:31.945Z,102225.50
2019-02-14T22:55:02.185Z,102220.35
2019-02-14T22:57:32.447Z,102228.62
2019-02-14T23:00:02.848Z,102231.25
2019-02-14T23:02:33.072Z,102230.41
2019-02-14T23:05:03.498Z,102232.20
2019-02-14T23:07:34.217Z,102237.43
2019-02-14T23:10:04.501Z,102233.12
2019-02-14T23:12:34.949Z,102228.44
2019-02-14T23:15:05.429Z,102230.63
2019-02-14T23:17:35.710Z,102228.92
2019-02-14T23:20:06.074Z,102231.56
2019-02-14T23:22:36.321Z,102227.69
2019-02-14T23:25:07.240Z,102230.73
2019-02-14T23:27:37.504Z,102232.88
2019-02-14T23:30:08.359Z,102230.70
2019-02-14T23:32:39.592Z,102230.66
2019-02-14T23:35:09.925Z,102230.19
2019-02-14T23:37:40.234Z,102225.87
2019-02-14T23:40:10.578Z,102227.61
2019-02-14T23:42:40.838Z,102228.92
2019-02-14T23:45:11.197Z,102228.06
2019-02-14T23:47:41.505Z,102227.19
2019-02-14T23:50:12.079Z,102231.55
2019-02-14T23:52:42.400Z,102235.02
2019-02-14T23:55:12.667Z,102237.17
2019-02-14T23:57:43.178Z,102241.08
